• Join FlightAware (Why Join?)
  • Login
  • US Flag 
09:20PM EST


 

Airport Tracker/Info


-or-


 

Live Flight TrackerFlight Track Log ✈ SWA1108 ✈ 25-Apr-2013 ✈ KDAL - KTUL

Flight Track Log - Related Links

Times and Time Zones

All times are in EDT time to prevent confusion due to time zone crossing. See the SWA1108 flight status page for this flight to view local times or setup timezone preferences in your user account.

Time Position Orientation Groundspeed Altitude Reporting Facility
EDT Latitude Longitude Course Direction KTS MPH feet Rate Location/Type
03:36PM 32.7667 -96.7667 140° Southeast 206 237 5,900  Level Dallas / Fort Worth TRACON
03:37PM 32.7500 -96.7167 112° Southeast 252 290 7,900 1,860 Climbing Dallas / Fort Worth TRACON
03:40PM 32.9086 -96.7231 358° North 274 315 12,300 1,980 Climbing Fort Worth Center
03:41PM 33.3370 -96.7626 North  Level FlightAware Approximate
03:41PM 33.0008 -96.7619 341° North 307 353 14,800  Level Fort Worth Center
03:42PM 33.0825 -96.7986 339° North 333 383 17,000 1,860 Climbing Fort Worth Center
03:43PM 33.1806 -96.8425 339° North 346 398 18,600 2,220 Climbing Fort Worth Center
03:44PM 33.2664 -96.8817 339° North 351 404 21,500 2,100 Climbing Fort Worth Center
03:46PM 33.4733 -96.9528 344° North 381 438 24,900 2,100 Climbing Fort Worth Center
03:47PM 33.5858 -96.9122 17° North 397 457 27,900 2,880 Climbing Fort Worth Center
03:48PM 33.6942 -96.8667 19° North 407 468 30,700 1,980 Climbing Fort Worth Center
03:49PM 33.8067 -96.8236 18° North 421 484 31,900 1,080 Climbing Fort Worth Center
03:50PM 33.9275 -96.7753 18° North 439 505 32,900 540 Climbing Fort Worth Center
03:51PM 34.0650 -96.7239 17° North 456 525 33,000  Climbing Fort Worth Center
03:52PM 34.1669 -96.6806 19° North 449 517 33,000  Level Fort Worth Center
03:54PM 34.4147 -96.5803 18° North 459 528 33,000  Level Fort Worth Center
03:55PM 34.5375 -96.5261 20° North 465 535 33,000  Level Fort Worth Center
03:56PM 34.6600 -96.4694 21° North 465 535 33,000  Level Fort Worth Center
03:57PM 34.7828 -96.4175 19° North 465 535 33,000 -600 Level Fort Worth Center
03:58PM 34.9033 -96.3653 20° North 465 535 31,900 -2,040 Descending Fort Worth Center
03:59PM 35.0219 -96.3108 21° North 465 535 29,000 540 Descending Fort Worth Center
04:00PM 35.1547 -96.2556 19° North 465 535 33,000 -3,360 Climbing Fort Worth Center
04:01PM 35.2711 -96.2006 21° North 459 528 22,300 -5,340 Descending Fort Worth Center
04:03PM 35.4475 -96.1272 19° North 413 475 18,600 -2,580 Descending Kansas City Center
04:04PM 35.5528 -96.1139 North 387 445 15,300 -3,360 Descending Kansas City Center
04:05PM 35.6611 -96.0997 North 391 450 11,800 -1,980 Descending Kansas City Center
04:06PM 35.8050 -96.0839 North 302 348 10,500 -1,140 Descending Kansas City Center
04:07PM 35.8581 -96.0747 North 309 356 9,500 -1,620 Descending Kansas City Center
04:07PM 35.8881 -96.0733 North 291 335 8,900 -1,260 Descending Kansas City Center
04:08PM 35.9408 -96.0636 North 301 346 8,200 -1,500 Descending Kansas City Center
04:08PM 35.9689 -96.0631 North 294 338 7,400 -1,740 Descending Kansas City Center
04:09PM 36.0414 -96.0514 North 283 326 6,100 -1,080 Descending Kansas City Center
04:10PM 36.0964 -96.0439 North 286 329 5,500 -720 Descending Kansas City Center
04:10PM 36.1222 -96.0408 North 243 280 5,300 -1,080 Descending Kansas City Center
04:11PM 36.1569 -96.0364 North 241 277 4,400 -1,380 Descending Kansas City Center
04:11PM 36.1825 -96.0333 North 176 203 3,900 -1,200 Descending Kansas City Center
04:12PM 36.1964 -96.0128 50° Northeast 192 221 3,200 -1,260 Descending Kansas City Center
04:13PM 36.1942 -95.9569 93° East 151 174 1,800 -1,140 Descending Kansas City Center
04:14PM 36.1947 -95.9075 89° East 128 147 800 -540 Descending Kansas City Center
04:15PM 36.1956 -95.8672 89° East 138 159 700 -120 Descending Kansas City Center